createdAt,value
2018-09-28T00:00:09.840Z,101975.80
2018-09-28T00:02:39.611Z,101970.70
2018-09-28T00:05:09.517Z,101971.55
2018-09-28T00:07:39.422Z,101973.95
2018-09-28T00:10:09.238Z,101971.56
2018-09-28T00:12:39.309Z,101972.06
2018-09-28T00:15:09.180Z,101980.78
2018-09-28T00:17:39.207Z,101975.42
2018-09-28T00:20:09.026Z,101974.94
2018-09-28T00:22:38.914Z,101975.73
2018-09-28T00:25:08.838Z,101978.62
2018-09-28T00:27:38.664Z,101977.17
2018-09-28T00:30:08.584Z,101975.34
2018-09-28T00:32:38.636Z,101971.08
2018-09-28T00:35:08.511Z,101970.04
2018-09-28T00:37:38.210Z,101968.94
2018-09-28T00:40:08.608Z,101964.65
2018-09-28T00:42:38.549Z,101963.89
2018-09-28T00:45:08.445Z,101966.25
2018-09-28T00:47:38.381Z,101969.87
2018-09-28T00:50:08.336Z,101963.00
2018-09-28T00:52:38.449Z,101962.67
2018-09-28T00:55:08.361Z,101963.26
2018-09-28T00:57:38.184Z,101955.59
2018-09-28T01:00:08.068Z,101963.61
2018-09-28T01:02:38.064Z,101967.46
2018-09-28T01:05:08.111Z,101962.33
2018-09-28T01:07:38.039Z,101959.59
2018-09-28T01:10:08.300Z,101964.15
2018-09-28T01:12:38.223Z,101959.08
2018-09-28T01:15:08.140Z,101963.40
2018-09-28T01:17:38.173Z,101968.92
2018-09-28T01:20:07.968Z,101962.72
2018-09-28T01:22:37.955Z,101969.93
2018-09-28T01:25:07.880Z,101982.30
2018-09-28T01:27:37.687Z,101988.92
2018-09-28T01:30:07.908Z,101987.95
2018-09-28T01:32:38.228Z,101977.30
2018-09-28T01:35:08.097Z,101981.92
2018-09-28T01:37:38.456Z,101980.66
2018-09-28T01:40:08.344Z,101981.89
2018-09-28T01:42:38.429Z,101975.63
2018-09-28T01:45:08.312Z,101973.55
2018-09-28T01:47:38.361Z,101972.00
2018-09-28T01:50:08.476Z,101966.71
2018-09-28T01:52:38.637Z,101971.81
2018-09-28T01:55:08.509Z,101974.97
2018-09-28T01:57:38.519Z,101967.11
2018-09-28T02:00:08.384Z,101965.48
2018-09-28T02:02:38.344Z,101963.41
2018-09-28T02:05:08.331Z,101960.83
2018-09-28T02:07:38.141Z,101964.30
2018-09-28T02:10:08.094Z,101960.53
2018-09-28T02:12:37.933Z,101962.38
2018-09-28T02:15:08.049Z,101967.34
2018-09-28T02:17:38.057Z,101967.63
2018-09-28T02:20:08.024Z,101963.12
2018-09-28T02:22:37.820Z,101965.05
2018-09-28T02:25:08.056Z,101960.56
2018-09-28T02:27:37.865Z,101963.01
2018-09-28T02:30:08.669Z,101966.48
2018-09-28T02:32:38.578Z,101954.42
2018-09-28T02:35:08.401Z,101959.90
2018-09-28T02:37:38.156Z,101965.96
2018-09-28T02:40:08.080Z,101957.33
2018-09-28T02:42:38.547Z,101952.73
2018-09-28T02:45:08.587Z,101957.07
2018-09-28T02:47:38.510Z,101952.30
2018-09-28T02:50:08.601Z,101957.45
2018-09-28T02:52:38.517Z,101956.59
2018-09-28T02:55:08.236Z,101949.84
2018-09-28T02:57:38.829Z,101953.76
2018-09-28T03:00:09.356Z,101950.06
2018-09-28T03:02:39.309Z,101947.48
2018-09-28T03:05:09.085Z,101949.45
2018-09-28T03:07:39.352Z,101953.16
2018-09-28T03:10:09.284Z,101956.59
2018-09-28T03:12:39.111Z,101954.62
2018-09-28T03:15:09.203Z,101957.84
2018-09-28T03:17:39.116Z,101961.41
2018-09-28T03:20:09.114Z,101961.70
2018-09-28T03:22:38.985Z,101970.55
2018-09-28T03:25:08.937Z,101962.27
2018-09-28T03:27:38.921Z,101967.19
2018-09-28T03:30:08.804Z,101962.90
2018-09-28T03:32:38.884Z,101965.08
2018-09-28T03:35:08.884Z,101962.89
2018-09-28T03:37:39.633Z,101964.02
2018-09-28T03:40:09.396Z,101964.89
2018-09-28T03:42:39.682Z,101965.45
2018-09-28T03:45:09.756Z,101967.04
2018-09-28T03:47:40.917Z,101972.73
2018-09-28T03:50:10.756Z,101975.43
2018-09-28T03:52:40.778Z,101984.34
2018-09-28T03:55:10.669Z,101983.69
2018-09-28T03:57:40.512Z,101992.28
2018-09-28T04:00:11.418Z,101989.41
2018-09-28T04:02:41.873Z,101992.95
2018-09-28T04:05:11.559Z,101992.92
2018-09-28T04:07:41.586Z,101990.55
2018-09-28T04:10:11.616Z,101988.69
2018-09-28T04:12:41.479Z,101981.47
2018-09-28T04:15:11.422Z,101986.56
2018-09-28T04:17:41.432Z,101986.07
2018-09-28T04:20:11.492Z,101990.13
2018-09-28T04:22:41.624Z,101991.45
2018-09-28T04:25:11.587Z,101998.12
2018-09-28T04:27:41.407Z,101991.98
2018-09-28T04:30:11.088Z,101999.48
2018-09-28T04:32:40.965Z,101996.80
2018-09-28T04:35:10.644Z,101993.05
2018-09-28T04:37:40.428Z,102000.56
2018-09-28T04:40:10.409Z,102001.38
2018-09-28T04:42:40.139Z,101997.39
2018-09-28T04:45:09.862Z,102003.02
2018-09-28T04:47:39.606Z,101999.00
2018-09-28T04:50:09.347Z,102009.44
2018-09-28T04:52:38.988Z,102014.50
2018-09-28T04:55:08.830Z,102013.98
2018-09-28T04:57:38.577Z,102012.95
2018-09-28T05:00:10.326Z,102017.72
2018-09-28T05:02:40.285Z,102023.29
2018-09-28T05:05:10.156Z,102033.20
2018-09-28T05:07:39.853Z,102027.10
2018-09-28T05:10:09.820Z,102022.87
2018-09-28T05:12:39.616Z,102034.09
2018-09-28T05:15:09.558Z,102040.28
2018-09-28T05:17:39.272Z,102042.69
2018-09-28T05:20:09.926Z,102044.03
2018-09-28T05:22:40.140Z,102040.59
2018-09-28T05:25:10.281Z,102033.93
2018-09-28T05:27:40.069Z,102050.25
2018-09-28T05:30:09.951Z,102045.73
2018-09-28T05:32:39.914Z,102049.00
2018-09-28T05:35:09.459Z,102055.41
2018-09-28T05:37:39.647Z,102061.02
2018-09-28T05:40:09.396Z,102070.65
2018-09-28T05:42:39.441Z,102076.28
2018-09-28T05:45:09.365Z,102073.61
2018-09-28T05:47:39.033Z,102077.34
2018-09-28T05:50:09.718Z,102080.30
2018-09-28T05:52:39.529Z,102094.47
2018-09-28T05:55:09.208Z,102096.34
2018-09-28T05:57:39.095Z,102105.71
2018-09-28T06:00:13.967Z,102103.02
2018-09-28T06:02:48.812Z,102111.61
2018-09-28T06:05:23.554Z,102106.80
2018-09-28T06:07:53.241Z,102110.28
2018-09-28T06:10:23.061Z,102107.08
2018-09-28T06:12:52.746Z,102105.75
2018-09-28T06:15:22.534Z,102115.63
2018-09-28T06:17:52.230Z,102113.45
2018-09-28T06:20:22.133Z,102112.13
2018-09-28T06:22:51.873Z,102117.21
2018-09-28T06:25:22.057Z,102116.13
2018-09-28T06:27:52.335Z,102124.41
2018-09-28T06:30:22.639Z,102123.84
2018-09-28T06:32:52.519Z,102121.17
2018-09-28T06:35:22.393Z,102126.01
2018-09-28T06:37:52.274Z,102134.31
2018-09-28T06:40:21.915Z,102127.63
2018-09-28T06:42:51.560Z,102140.47
2018-09-28T06:45:21.403Z,102148.75
2018-09-28T06:47:51.680Z,102147.16
2018-09-28T06:50:21.582Z,102152.27
2018-09-28T06:52:51.625Z,102159.47
2018-09-28T06:55:21.288Z,102164.56
2018-09-28T06:57:50.952Z,102169.41
2018-09-28T07:00:20.612Z,102165.37
2018-09-28T07:02:50.434Z,102168.05
2018-09-28T07:05:20.305Z,102163.78
2018-09-28T07:07:50.025Z,102168.08
2018-09-28T07:10:19.769Z,102179.06
2018-09-28T07:12:49.500Z,102180.95
2018-09-28T07:15:19.389Z,102185.21
2018-09-28T07:17:49.468Z,102185.73
2018-09-28T07:20:19.070Z,102190.31
2018-09-28T07:22:48.944Z,102185.75
2018-09-28T07:25:18.596Z,102193.50
2018-09-28T07:27:48.231Z,102206.36
2018-09-28T07:30:18.009Z,102201.29
2018-09-28T07:32:47.700Z,102215.74
2018-09-28T07:35:17.396Z,102220.55
2018-09-28T07:37:47.093Z,102218.14
2018-09-28T07:40:17.315Z,102223.23
2018-09-28T07:42:47.144Z,102223.24
2018-09-28T07:45:16.949Z,102228.08
2018-09-28T07:47:46.748Z,102237.70
2018-09-28T07:50:16.358Z,102245.75
2018-09-28T07:52:46.050Z,102248.69
2018-09-28T07:55:16.092Z,102249.48
2018-09-28T07:57:45.767Z,102246.00
2018-09-28T08:00:15.769Z,102252.95
2018-09-28T08:02:45.592Z,102261.27
2018-09-28T08:05:15.349Z,102258.06
2018-09-28T08:07:45.076Z,102258.59
2018-09-28T08:10:14.772Z,102266.09
2018-09-28T08:12:44.681Z,102275.22
2018-09-28T08:15:14.475Z,102275.48
2018-09-28T08:17:44.381Z,102282.20
2018-09-28T08:20:14.330Z,102284.63
2018-09-28T08:22:44.052Z,102277.66
2018-09-28T08:25:13.882Z,102285.44
2018-09-28T08:27:43.701Z,102286.22
2018-09-28T08:30:13.504Z,102287.57
2018-09-28T08:32:43.212Z,102290.79
2018-09-28T08:35:12.862Z,102294.27
2018-09-28T08:37:42.493Z,102297.48
2018-09-28T08:40:12.461Z,102297.73
2018-09-28T08:42:42.131Z,102307.92
2018-09-28T08:45:13.227Z,102311.41
2018-09-28T08:47:43.195Z,102317.05
2018-09-28T08:50:12.879Z,102317.85
2018-09-28T08:52:42.794Z,102316.23
2018-09-28T08:55:12.529Z,102327.48
2018-09-28T08:57:42.349Z,102322.11
2018-09-28T09:00:12.029Z,102326.95
2018-09-28T09:02:41.760Z,102341.97
2018-09-28T09:05:11.485Z,102337.39
2018-09-28T09:07:41.420Z,102349.45
2018-09-28T09:10:11.492Z,102349.33
2018-09-28T09:12:41.512Z,102353.34
2018-09-28T09:15:11.675Z,102359.52
2018-09-28T09:17:41.511Z,102356.84
2018-09-28T09:20:11.337Z,102357.91
2018-09-28T09:22:41.080Z,102355.27
2018-09-28T09:25:10.766Z,102364.39
2018-09-28T09:27:40.533Z,102369.00
2018-09-28T09:30:10.409Z,102369.55
2018-09-28T09:32:40.077Z,102378.38
2018-09-28T09:35:09.926Z,102381.34
2018-09-28T09:37:39.865Z,102392.59
2018-09-28T09:40:09.619Z,102388.59
2018-09-28T09:42:39.497Z,102389.13
2018-09-28T09:45:09.393Z,102396.64
2018-09-28T09:47:39.080Z,102387.25
2018-09-28T09:50:08.859Z,102392.09
2018-09-28T09:52:38.588Z,102382.44
2018-09-28T09:55:08.919Z,102397.45
2018-09-28T09:57:38.612Z,102395.31
2018-09-28T10:00:08.855Z,102392.34
2018-09-28T10:02:43.825Z,102401.19
2018-09-28T10:05:13.641Z,102397.99
2018-09-28T10:07:43.304Z,102394.48
2018-09-28T10:10:13.026Z,102392.62
2018-09-28T10:12:42.814Z,102397.17
2018-09-28T10:15:12.479Z,102406.56
2018-09-28T10:17:42.231Z,102409.80
2018-09-28T10:20:12.050Z,102411.94
2018-09-28T10:22:41.874Z,102415.95
2018-09-28T10:25:11.654Z,102417.28
2018-09-28T10:27:41.620Z,102408.97
2018-09-28T10:30:11.394Z,102415.16
2018-09-28T10:32:41.139Z,102414.09
2018-09-28T10:35:11.145Z,102422.66
2018-09-28T10:37:41.002Z,102425.34
2018-09-28T10:40:10.975Z,102426.41
2018-09-28T10:42:40.768Z,102421.05
2018-09-28T10:45:10.623Z,102430.14
2018-09-28T10:47:40.444Z,102436.58
2018-09-28T10:50:10.136Z,102439.22
2018-09-28T10:52:40.040Z,102434.42
2018-09-28T10:55:09.811Z,102437.09
2018-09-28T10:57:39.915Z,102438.70
2018-09-28T11:00:09.808Z,102434.44
2018-09-28T11:02:39.626Z,102439.28
2018-09-28T11:05:09.619Z,102437.41
2018-09-28T11:07:39.311Z,102438.45
2018-09-28T11:10:09.281Z,102429.35
2018-09-28T11:12:39.161Z,102437.92
2018-09-28T11:15:08.964Z,102433.09
2018-09-28T11:17:38.740Z,102434.96
2018-09-28T11:20:09.016Z,102430.92
2018-09-28T11:22:38.742Z,102425.59
2018-09-28T11:25:08.552Z,102425.03
2018-09-28T11:27:38.458Z,102430.14
2018-09-28T11:30:08.134Z,102427.16
2018-09-28T11:32:38.100Z,102427.17
2018-09-28T11:35:07.887Z,102432.27
2018-09-28T11:37:37.755Z,102434.13
2018-09-28T11:40:07.500Z,102435.20
2018-09-28T11:42:37.688Z,102429.81
2018-09-28T11:45:07.431Z,102431.99
2018-09-28T11:47:37.502Z,102421.50
2018-09-28T11:50:07.334Z,102420.16
2018-09-28T11:52:37.090Z,102421.20
2018-09-28T11:55:07.001Z,102418.27
2018-09-28T11:57:36.790Z,102426.31
2018-09-28T12:00:07.405Z,102418.77
2018-09-28T12:02:37.166Z,102421.11
2018-09-28T12:05:07.217Z,102427.86
2018-09-28T12:07:36.935Z,102424.60
2018-09-28T12:10:06.842Z,102423.19
2018-09-28T12:12:36.872Z,102420.13
2018-09-28T12:15:06.643Z,102419.88
2018-09-28T12:17:36.340Z,102416.16
2018-09-28T12:20:07.733Z,102409.75
2018-09-28T12:22:37.417Z,102410.98
2018-09-28T12:25:07.227Z,102407.13
2018-09-28T12:27:37.010Z,102411.09
2018-09-28T12:30:07.088Z,102411.09
2018-09-28T12:32:36.878Z,102417.28
2018-09-28T12:35:06.897Z,102417.84
2018-09-28T12:37:37.374Z,102422.60
2018-09-28T12:40:07.730Z,102413.70
2018-09-28T12:42:37.529Z,102414.51
2018-09-28T12:45:07.385Z,102412.07
2018-09-28T12:47:37.100Z,102407.54
2018-09-28T12:50:07.014Z,102416.35
2018-09-28T12:52:36.687Z,102416.35
2018-09-28T12:55:06.491Z,102418.45
2018-09-28T12:57:36.292Z,102413.98
2018-09-28T13:00:07.918Z,102407.86
2018-09-28T13:02:37.656Z,102410.06
2018-09-28T13:05:07.568Z,102412.46
2018-09-28T13:07:37.266Z,102411.57
2018-09-28T13:10:07.551Z,102410.92
2018-09-28T13:12:37.308Z,102404.34
2018-09-28T13:15:07.205Z,102405.78
2018-09-28T13:17:36.731Z,102400.06
2018-09-28T13:20:06.676Z,102397.66
2018-09-28T13:22:36.562Z,102403.25
2018-09-28T13:25:06.614Z,102391.71
2018-09-28T13:27:36.350Z,102395.07
2018-09-28T13:30:06.226Z,102388.37
2018-09-28T13:32:36.044Z,102394.33
2018-09-28T13:35:05.937Z,102387.16
2018-09-28T13:37:35.883Z,102387.73
2018-09-28T13:40:06.763Z,102397.71
2018-09-28T13:42:36.498Z,102394.22
2018-09-28T13:45:06.370Z,102404.57
2018-09-28T13:47:36.242Z,102405.88
2018-09-28T13:50:06.554Z,102400.41
2018-09-28T13:52:36.403Z,102406.68
2018-09-28T13:55:06.797Z,102402.05
2018-09-28T13:57:36.743Z,102398.33
2018-09-28T14:00:07.405Z,102398.16
2018-09-28T14:02:37.336Z,102401.13
2018-09-28T14:05:08.475Z,102397.30
2018-09-28T14:07:38.372Z,102402.23
2018-09-28T14:10:08.335Z,102396.00
2018-09-28T14:12:38.432Z,102396.00
2018-09-28T14:15:08.246Z,102397.55
2018-09-28T14:17:37.923Z,102402.38
2018-09-28T14:20:07.734Z,102391.56
2018-09-28T14:22:37.737Z,102398.61
2018-09-28T14:25:07.463Z,102401.79
2018-09-28T14:27:37.238Z,102397.05
2018-09-28T14:30:07.178Z,102389.55
2018-09-28T14:32:37.151Z,102390.45
2018-09-28T14:35:07.218Z,102398.00
2018-09-28T14:37:37.076Z,102401.34
2018-09-28T14:40:07.125Z,102404.36
2018-09-28T14:42:37.073Z,102408.15
2018-09-28T14:45:06.974Z,102399.22
2018-09-28T14:47:36.659Z,102404.80
2018-09-28T14:50:06.855Z,102406.55
2018-09-28T14:52:36.681Z,102412.17
2018-09-28T14:55:06.506Z,102398.68
2018-09-28T14:57:36.446Z,102411.59
2018-09-28T15:00:07.712Z,102397.38
2018-09-28T15:02:37.899Z,102417.31
2018-09-28T15:05:07.976Z,102416.21
2018-09-28T15:07:37.755Z,102417.55
2018-09-28T15:10:07.651Z,102416.38
2018-09-28T15:12:37.397Z,102421.77
2018-09-28T15:15:07.357Z,102429.30
2018-09-28T15:17:37.265Z,102432.31
2018-09-28T15:20:09.281Z,102431.56
2018-09-28T15:22:38.983Z,102430.22
2018-09-28T15:25:08.793Z,102423.67
2018-09-28T15:27:38.717Z,102433.94
2018-09-28T15:30:09.284Z,102425.30
2018-09-28T15:32:39.353Z,102429.86
2018-09-28T15:35:09.402Z,102440.37
2018-09-28T15:37:39.151Z,102450.39
2018-09-28T15:40:09.066Z,102438.88
2018-09-28T15:42:39.069Z,102451.55
2018-09-28T15:45:09.846Z,102449.16
2018-09-28T15:47:39.667Z,102450.25
2018-09-28T15:50:09.744Z,102450.87
2018-09-28T15:52:39.781Z,102447.94
2018-09-28T15:55:10.123Z,102456.30
2018-09-28T15:57:39.819Z,102454.16
2018-09-28T16:00:10.823Z,102463.07
2018-09-28T16:02:40.753Z,102460.15
2018-09-28T16:05:10.520Z,102459.33
2018-09-28T16:07:40.349Z,102466.59
2018-09-28T16:10:10.089Z,102457.99
2018-09-28T16:15:18.220Z,102465.23
2018-09-28T16:17:48.048Z,102460.95
2018-09-28T16:20:17.836Z,102467.38
2018-09-28T16:22:47.906Z,102463.08
2018-09-28T16:25:17.828Z,102459.86
2018-09-28T16:27:47.722Z,102464.70
2018-09-28T16:30:17.831Z,102477.81
2018-09-28T16:32:47.746Z,102483.17
2018-09-28T16:35:17.736Z,102471.60
2018-09-28T16:37:48.562Z,102477.53
2018-09-28T16:40:18.710Z,102483.69
2018-09-28T16:42:48.629Z,102483.95
2018-09-28T16:45:18.644Z,102486.11
2018-09-28T16:47:48.625Z,102485.31
2018-09-28T16:50:18.708Z,102490.16
2018-09-28T16:52:48.772Z,102500.64
2018-09-28T16:55:19.041Z,102496.37
2018-09-28T16:57:49.175Z,102497.73
2018-09-28T17:00:19.057Z,102499.34
2018-09-28T17:02:49.416Z,102516.80
2018-09-28T17:05:19.404Z,102509.83
2018-09-28T17:07:49.288Z,102521.13
2018-09-28T17:10:19.317Z,102516.80
2018-09-28T17:12:49.319Z,102523.25
2018-09-28T17:15:19.443Z,102529.67
2018-09-28T17:17:49.658Z,102532.09
2018-09-28T17:20:19.753Z,102533.42
2018-09-28T17:22:50.314Z,102534.22
2018-09-28T17:25:20.544Z,102549.78
2018-09-28T17:27:50.779Z,102558.35
2018-09-28T17:30:20.740Z,102560.50
2018-09-28T17:32:50.695Z,102553.00
2018-09-28T17:35:20.765Z,102565.58
2018-09-28T17:37:50.654Z,102567.47
2018-09-28T17:40:20.564Z,102569.86
2018-09-28T17:42:51.695Z,102571.19
2018-09-28T17:45:21.638Z,102570.10
2018-09-28T17:47:51.788Z,102573.84
2018-09-28T17:50:21.828Z,102587.78
2018-09-28T17:52:51.780Z,102592.05
2018-09-28T17:55:21.982Z,102590.16
2018-09-28T17:57:52.079Z,102595.27
2018-09-28T18:00:22.119Z,102601.95
2018-09-28T18:02:52.229Z,102611.56
2018-09-28T18:05:22.269Z,102608.60
2018-09-28T18:07:52.243Z,102614.17
2018-09-28T18:10:22.254Z,102611.26
2018-09-28T18:12:52.086Z,102616.33
2018-09-28T18:15:22.200Z,102619.21
2018-09-28T18:17:52.990Z,102631.27
2018-09-28T18:20:22.939Z,102632.28
2018-09-28T18:22:53.047Z,102633.07
2018-09-28T18:25:23.050Z,102630.66
2018-09-28T18:27:53.006Z,102636.25
2018-09-28T18:30:23.103Z,102648.75
2018-09-28T18:32:53.151Z,102640.16
2018-09-28T18:35:23.269Z,102642.81
2018-09-28T18:37:53.877Z,102641.73
2018-09-28T18:40:23.851Z,102652.92
2018-09-28T18:42:53.880Z,102658.23
2018-09-28T18:45:24.218Z,102657.45
2018-09-28T18:47:54.192Z,102665.67
2018-09-28T18:50:24.549Z,102661.13
2018-09-28T18:52:54.690Z,102665.89
2018-09-28T18:55:24.922Z,102677.41
2018-09-28T18:57:55.343Z,102685.56
2018-09-28T19:00:25.517Z,102686.17
2018-09-28T19:02:55.495Z,102687.16
2018-09-28T19:05:25.915Z,102688.23
2018-09-28T19:07:55.853Z,102681.55
2018-09-28T19:10:25.964Z,102684.95
2018-09-28T19:12:55.950Z,102680.07
2018-09-28T19:15:26.016Z,102687.37
2018-09-28T19:17:56.044Z,102677.64
2018-09-28T19:20:26.390Z,102680.63
2018-09-28T19:22:56.452Z,102691.59
2018-09-28T19:25:26.689Z,102687.52
2018-09-28T19:27:56.781Z,102684.74
2018-09-28T19:30:26.795Z,102685.20
2018-09-28T19:32:56.793Z,102692.61
2018-09-28T19:35:26.727Z,102688.95
2018-09-28T19:37:56.987Z,102697.55
2018-09-28T19:40:27.051Z,102699.50
2018-09-28T19:42:57.048Z,102702.58
2018-09-28T19:45:27.222Z,102705.67
2018-09-28T19:47:57.423Z,102709.92
2018-09-28T19:50:27.548Z,102722.00
2018-09-28T19:52:57.581Z,102722.34
2018-09-28T19:55:27.538Z,102722.07
2018-09-28T19:57:57.513Z,102725.19
2018-09-28T20:00:27.785Z,102719.52
2018-09-28T20:02:57.913Z,102723.59
2018-09-28T20:05:27.895Z,102723.01
2018-09-28T20:07:57.910Z,102732.45
2018-09-28T20:10:27.851Z,102732.75
2018-09-28T20:12:58.178Z,102734.27
2018-09-28T20:15:28.213Z,102742.98
2018-09-28T20:17:58.219Z,102746.92
2018-09-28T20:20:28.468Z,102759.45
2018-09-28T20:22:58.488Z,102760.98
2018-09-28T20:25:28.604Z,102758.55
2018-09-28T20:27:58.621Z,102758.16
2018-09-28T20:30:28.569Z,102759.58
2018-09-28T20:32:58.699Z,102757.52
2018-09-28T20:35:28.725Z,102751.00
2018-09-28T20:37:58.747Z,102758.84
2018-09-28T20:40:28.766Z,102765.09
2018-09-28T20:42:58.807Z,102776.43
2018-09-28T20:45:29.009Z,102778.47
2018-09-28T20:47:59.051Z,102772.34
2018-09-28T20:50:29.173Z,102774.94
2018-09-28T20:52:59.180Z,102788.45
2018-09-28T20:55:29.369Z,102789.05
2018-09-28T20:57:59.195Z,102787.55
2018-09-28T21:00:29.153Z,102786.97
2018-09-28T21:02:59.087Z,102787.70
2018-09-28T21:05:29.462Z,102789.22
2018-09-28T21:07:59.673Z,102795.73
2018-09-28T21:10:29.644Z,102791.44
2018-09-28T21:12:59.597Z,102798.89
2018-09-28T21:15:29.609Z,102795.04
2018-09-28T21:17:59.747Z,102788.95
2018-09-28T21:20:29.920Z,102795.19
2018-09-28T21:22:59.763Z,102798.19
2018-09-28T21:25:29.709Z,102797.67
2018-09-28T21:27:59.719Z,102795.80
2018-09-28T21:30:30.505Z,102806.37
2018-09-28T21:33:00.390Z,102804.47
2018-09-28T21:35:30.551Z,102804.34
2018-09-28T21:38:00.500Z,102813.61
2018-09-28T21:40:30.855Z,102803.11
2018-09-28T21:43:01.268Z,102801.91
2018-09-28T21:45:31.330Z,102797.44
2018-09-28T21:48:01.512Z,102799.11
2018-09-28T21:50:32.189Z,102801.68
2018-09-28T21:53:02.264Z,102797.62
2018-09-28T21:55:32.651Z,102805.28
2018-09-28T21:58:02.484Z,102798.58
2018-09-28T22:00:36.510Z,102801.55
2018-09-28T22:03:08.671Z,102801.14
2018-09-28T22:05:38.900Z,102797.08
2018-09-28T22:08:08.922Z,102798.16
2018-09-28T22:10:38.751Z,102803.02
2018-09-28T22:13:08.737Z,102807.39
2018-09-28T22:15:38.743Z,102806.20
2018-09-28T22:18:08.946Z,102812.86
2018-09-28T22:20:39.507Z,102813.45
2018-09-28T22:23:09.407Z,102816.25
2018-09-28T22:25:39.624Z,102824.06
2018-09-28T22:28:09.969Z,102816.58
2018-09-28T22:30:39.930Z,102808.72
2018-09-28T22:33:09.912Z,102807.86
2018-09-28T22:35:39.997Z,102804.50
2018-09-28T22:38:10.076Z,102808.12
2018-09-28T22:40:40.471Z,102810.69
2018-09-28T22:43:10.469Z,102803.14
2018-09-28T22:45:40.363Z,102799.16
2018-09-28T22:48:10.548Z,102799.58
2018-09-28T22:50:40.871Z,102790.35
2018-09-28T22:53:10.903Z,102796.23
2018-09-28T22:55:41.019Z,102794.59
2018-09-28T22:58:11.208Z,102803.53
2018-09-28T23:00:41.216Z,102808.16
2018-09-28T23:03:11.314Z,102806.20
2018-09-28T23:05:41.280Z,102808.44
2018-09-28T23:08:11.276Z,102806.59
2018-09-28T23:10:41.501Z,102807.81
2018-09-28T23:13:11.412Z,102813.48
2018-09-28T23:15:41.305Z,102824.06
2018-09-28T23:18:11.379Z,102824.64
2018-09-28T23:20:41.347Z,102823.89
2018-09-28T23:23:11.238Z,102823.19
2018-09-28T23:25:41.104Z,102822.72
2018-09-28T23:28:11.152Z,102821.85
2018-09-28T23:30:40.976Z,102815.94
2018-09-28T23:33:11.258Z,102818.14
2018-09-28T23:35:41.596Z,102816.06
2018-09-28T23:38:11.603Z,102821.66
2018-09-28T23:40:41.690Z,102830.50
2018-09-28T23:43:11.796Z,102841.03
2018-09-28T23:45:42.064Z,102837.03
2018-09-28T23:48:12.465Z,102838.78
2018-09-28T23:50:42.413Z,102838.57
2018-09-28T23:53:12.469Z,102839.91
2018-09-28T23:55:42.709Z,102840.03
2018-09-28T23:58:12.665Z,102843.25
